Sharm el Sheikh, Egypt
Current Conditions -  °F | °C
As of 9:00 AM on Sunday 26 Oct 2014 (Local Time) from HESH Reporting Station
Clear Clear  
Wind Chill: 86°   Ceiling: Unl
Heat Index: 87°   Visibility: 6mi
Dew Point: 64°   Wind: 8mph
Humidity: 48%   Direction: 360°N
Pressure: 29.91"   Gusts: NA
Location:  27.98°N, 34.39°E
Report Text: HESH 260700Z 36007KT CAVOK 30/18 Q1013 NOSIG
Loading
Personal Weather Stations






























Interactive Weather Map New forecast layout! Learn more

10-Day Weather Forecast

Advertisements
Track Severe Weather on mobile